weather.gov     
National Weather Service

Terminal Aerodrome Forecast
NWS Homepage
This page is being discontinued on March 12, 2014.
The same data is available at this site. Please update your bookmarks.
Thank you, and we apologize for the inconvenience.
Please send an email to SR-SRH.Webmaster@noaa.gov with any concerns.


Current Version
Previous Version:    01  02  03  04  05  06  07  08  09  10  11  12  13  14  15  16  17  18  19  20  21  22  23  24  25  26  27  28  29  30  
   31  32  33  34  35  36  37  38  39  
[Printable]
310
FTUS41 KGYX 270537
TAFCON
TAF
KCON 270537Z 2706/2806 01011KT 3/4SM -SN BR VV008
     FM270600 34012G20KT 2SM -SN BR SCT008 OVC012
     FM271300 33008KT P6SM -SHSN OVC040
     FM272200 VRB03KT P6SM -SHSN BKN050=


310
FTUS41 KGYX 270537
TAFCON
TAF
KCON 270537Z 2706/2806 01011KT 3/4SM -SN BR VV008
     FM270600 34012G20KT 2SM -SN BR SCT008 OVC012
     FM271300 33008KT P6SM -SHSN OVC040
     FM272200 VRB03KT P6SM -SHSN BKN050=




U.S. Dept. of Commerce
NOAA National Weather Service
1325 East West Highway
Silver Spring, MD 20910
E-mail: w-nws.webmaster@noaa.gov
Page last modified: May 16, 2007
NATIONAL WEATHER SERVICE: for Safety, for Work, for Fun - FOR LIFE